sensor_id;sensor_type;location;lat;lon;timestamp;P1;durP1;ratioP1;P2;durP2;ratioP2
9322;SDS011;4700;48.822;9.270;2023-07-20T00:01:16;439.60;;;322.70;;
9322;SDS011;4700;48.822;9.270;2023-07-20T00:04:02;440.90;;;339.13;;
9322;SDS011;4700;48.822;9.270;2023-07-20T00:06:48;436.27;;;326.27;;
9322;SDS011;4700;48.822;9.270;2023-07-20T00:09:35;438.53;;;323.23;;
9322;SDS011;4700;48.822;9.270;2023-07-20T00:12:21;435.70;;;321.60;;
9322;SDS011;4700;48.822;9.270;2023-07-20T00:15:07;435.77;;;332.40;;
9322;SDS011;4700;48.822;9.270;2023-07-20T00:17:54;433.13;;;304.90;;
9322;SDS011;4700;48.822;9.270;2023-07-20T00:20:40;433.60;;;307.53;;
9322;SDS011;4700;48.822;9.270;2023-07-20T00:23:26;435.43;;;320.30;;
9322;SDS011;4700;48.822;9.270;2023-07-20T00:26:11;434.40;;;315.20;;
9322;SDS011;4700;48.822;9.270;2023-07-20T00:28:59;426.43;;;275.30;;
9322;SDS011;4700;48.822;9.270;2023-07-20T00:31:45;428.07;;;297.77;;
9322;SDS011;4700;48.822;9.270;2023-07-20T00:34:32;431.50;;;303.27;;
9322;SDS011;4700;48.822;9.270;2023-07-20T00:37:17;427.43;;;291.37;;
9322;SDS011;4700;48.822;9.270;2023-07-20T00:40:06;428.57;;;289.80;;
9322;SDS011;4700;48.822;9.270;2023-07-20T00:42:52;422.73;;;271.20;;
9322;SDS011;4700;48.822;9.270;2023-07-20T00:45:38;423.27;;;272.03;;
9322;SDS011;4700;48.822;9.270;2023-07-20T00:48:24;422.20;;;269.03;;
9322;SDS011;4700;48.822;9.270;2023-07-20T00:51:11;423.53;;;285.33;;
9322;SDS011;4700;48.822;9.270;2023-07-20T00:53:58;420.30;;;255.23;;
9322;SDS011;4700;48.822;9.270;2023-07-20T00:56:44;417.47;;;249.17;;
9322;SDS011;4700;48.822;9.270;2023-07-20T00:59:30;410.90;;;225.90;;
9322;SDS011;4700;48.822;9.270;2023-07-20T01:02:15;409.17;;;226.83;;
9322;SDS011;4700;48.822;9.270;2023-07-20T01:05:01;404.73;;;209.87;;
9322;SDS011;4700;48.822;9.270;2023-07-20T01:07:52;406.90;;;214.17;;
9322;SDS011;4700;48.822;9.270;2023-07-20T01:10:44;401.50;;;197.37;;
9322;SDS011;4700;48.822;9.270;2023-07-20T01:13:40;406.17;;;209.47;;
9322;SDS011;4700;48.822;9.270;2023-07-20T01:16:27;403.77;;;207.43;;
9322;SDS011;4700;48.822;9.270;2023-07-20T01:19:13;401.97;;;205.93;;
9322;SDS011;4700;48.822;9.270;2023-07-20T01:21:59;404.87;;;206.43;;
9322;SDS011;4700;48.822;9.270;2023-07-20T01:25:02;406.80;;;205.90;;
9322;SDS011;4700;48.822;9.270;2023-07-20T01:31:22;394.60;;;184.07;;
9322;SDS011;4700;48.822;9.270;2023-07-20T01:34:09;395.53;;;182.67;;
9322;SDS011;4700;48.822;9.270;2023-07-20T01:36:59;398.67;;;193.17;;
9322;SDS011;4700;48.822;9.270;2023-07-20T01:39:45;400.27;;;199.00;;
9322;SDS011;4700;48.822;9.270;2023-07-20T01:42:31;401.80;;;202.07;;
9322;SDS011;4700;48.822;9.270;2023-07-20T01:45:17;406.27;;;201.60;;
9322;SDS011;4700;48.822;9.270;2023-07-20T01:48:07;398.07;;;194.37;;
9322;SDS011;4700;48.822;9.270;2023-07-20T01:50:52;396.93;;;186.03;;
9322;SDS011;4700;48.822;9.270;2023-07-20T01:53:38;400.97;;;198.73;;
9322;SDS011;4700;48.822;9.270;2023-07-20T01:56:24;398.40;;;196.23;;
9322;SDS011;4700;48.822;9.270;2023-07-20T01:59:10;395.30;;;188.00;;
9322;SDS011;4700;48.822;9.270;2023-07-20T02:01:56;397.67;;;190.47;;
9322;SDS011;4700;48.822;9.270;2023-07-20T02:04:43;396.40;;;193.57;;
9322;SDS011;4700;48.822;9.270;2023-07-20T02:07:29;398.60;;;193.33;;
9322;SDS011;4700;48.822;9.270;2023-07-20T02:10:15;393.13;;;184.87;;
9322;SDS011;4700;48.822;9.270;2023-07-20T02:13:00;397.03;;;193.23;;
9322;SDS011;4700;48.822;9.270;2023-07-20T02:15:46;396.40;;;187.67;;
9322;SDS011;4700;48.822;9.270;2023-07-20T02:18:33;394.13;;;184.63;;
9322;SDS011;4700;48.822;9.270;2023-07-20T02:21:21;395.07;;;180.70;;
9322;SDS011;4700;48.822;9.270;2023-07-20T02:24:06;391.13;;;179.73;;
9322;SDS011;4700;48.822;9.270;2023-07-20T02:26:52;396.90;;;187.87;;
9322;SDS011;4700;48.822;9.270;2023-07-20T02:29:38;396.60;;;188.33;;
9322;SDS011;4700;48.822;9.270;2023-07-20T02:32:25;393.60;;;184.10;;
9322;SDS011;4700;48.822;9.270;2023-07-20T02:35:11;397.07;;;188.17;;
9322;SDS011;4700;48.822;9.270;2023-07-20T02:37:58;393.63;;;181.57;;
9322;SDS011;4700;48.822;9.270;2023-07-20T02:40:44;392.20;;;175.70;;
9322;SDS011;4700;48.822;9.270;2023-07-20T02:43:30;394.73;;;184.13;;
9322;SDS011;4700;48.822;9.270;2023-07-20T02:46:15;393.47;;;180.60;;
9322;SDS011;4700;48.822;9.270;2023-07-20T02:49:01;393.43;;;175.60;;
9322;SDS011;4700;48.822;9.270;2023-07-20T02:51:48;396.13;;;181.60;;
9322;SDS011;4700;48.822;9.270;2023-07-20T02:54:35;394.53;;;180.03;;
9322;SDS011;4700;48.822;9.270;2023-07-20T02:57:21;394.93;;;184.70;;
9322;SDS011;4700;48.822;9.270;2023-07-20T03:00:07;389.17;;;175.87;;
9322;SDS011;4700;48.822;9.270;2023-07-20T03:03:03;393.27;;;185.80;;
9322;SDS011;4700;48.822;9.270;2023-07-20T03:05:53;389.47;;;174.57;;
9322;SDS011;4700;48.822;9.270;2023-07-20T03:08:41;390.87;;;177.10;;
9322;SDS011;4700;48.822;9.270;2023-07-20T03:11:32;391.17;;;172.23;;
9322;SDS011;4700;48.822;9.270;2023-07-20T03:14:18;389.27;;;174.00;;
9322;SDS011;4700;48.822;9.270;2023-07-20T03:17:04;388.00;;;175.27;;
9322;SDS011;4700;48.822;9.270;2023-07-20T03:19:53;391.13;;;180.17;;
9322;SDS011;4700;48.822;9.270;2023-07-20T03:22:38;389.67;;;176.93;;
9322;SDS011;4700;48.822;9.270;2023-07-20T03:25:24;388.47;;;170.07;;
9322;SDS011;4700;48.822;9.270;2023-07-20T03:28:11;388.53;;;170.60;;
9322;SDS011;4700;48.822;9.270;2023-07-20T03:30:59;388.27;;;172.53;;
9322;SDS011;4700;48.822;9.270;2023-07-20T03:33:45;388.23;;;170.60;;
9322;SDS011;4700;48.822;9.270;2023-07-20T03:36:30;387.63;;;168.30;;
9322;SDS011;4700;48.822;9.270;2023-07-20T03:39:16;388.53;;;172.00;;
9322;SDS011;4700;48.822;9.270;2023-07-20T03:42:02;384.33;;;166.00;;
9322;SDS011;4700;48.822;9.270;2023-07-20T03:44:49;385.37;;;164.07;;
9322;SDS011;4700;48.822;9.270;2023-07-20T03:47:35;381.77;;;159.20;;
9322;SDS011;4700;48.822;9.270;2023-07-20T03:50:21;385.93;;;158.37;;
9322;SDS011;4700;48.822;9.270;2023-07-20T03:53:07;388.47;;;172.50;;
9322;SDS011;4700;48.822;9.270;2023-07-20T03:55:53;387.33;;;167.80;;
9322;SDS011;4700;48.822;9.270;2023-07-20T03:58:40;388.73;;;171.37;;
9322;SDS011;4700;48.822;9.270;2023-07-20T04:01:27;387.70;;;172.40;;
9322;SDS011;4700;48.822;9.270;2023-07-20T04:04:13;386.03;;;169.53;;
9322;SDS011;4700;48.822;9.270;2023-07-20T04:07:00;386.37;;;168.80;;
9322;SDS011;4700;48.822;9.270;2023-07-20T04:09:46;388.40;;;170.50;;
9322;SDS011;4700;48.822;9.270;2023-07-20T04:12:32;395.47;;;182.50;;
9322;SDS011;4700;48.822;9.270;2023-07-20T04:15:18;393.03;;;181.73;;
9322;SDS011;4700;48.822;9.270;2023-07-20T04:18:05;391.43;;;178.67;;
9322;SDS011;4700;48.822;9.270;2023-07-20T04:20:50;395.83;;;191.87;;
9322;SDS011;4700;48.822;9.270;2023-07-20T04:23:36;397.60;;;193.80;;
9322;SDS011;4700;48.822;9.270;2023-07-20T04:26:22;395.17;;;190.10;;
9322;SDS011;4700;48.822;9.270;2023-07-20T04:29:07;399.53;;;200.93;;
9322;SDS011;4700;48.822;9.270;2023-07-20T04:31:53;397.83;;;193.10;;
9322;SDS011;4700;48.822;9.270;2023-07-20T04:34:40;402.60;;;203.53;;
9322;SDS011;4700;48.822;9.270;2023-07-20T04:37:26;400.40;;;203.07;;
9322;SDS011;4700;48.822;9.270;2023-07-20T04:40:12;406.97;;;207.47;;
9322;SDS011;4700;48.822;9.270;2023-07-20T04:43:00;405.73;;;207.87;;
9322;SDS011;4700;48.822;9.270;2023-07-20T04:45:46;399.83;;;192.47;;
9322;SDS011;4700;48.822;9.270;2023-07-20T04:48:32;421.30;;;223.20;;
9322;SDS011;4700;48.822;9.270;2023-07-20T04:51:19;422.90;;;236.30;;
9322;SDS011;4700;48.822;9.270;2023-07-20T04:54:06;426.90;;;234.53;;
9322;SDS011;4700;48.822;9.270;2023-07-20T04:56:51;414.30;;;212.87;;
9322;SDS011;4700;48.822;9.270;2023-07-20T04:59:37;404.33;;;203.23;;
9322;SDS011;4700;48.822;9.270;2023-07-20T05:02:23;410.27;;;210.80;;
9322;SDS011;4700;48.822;9.270;2023-07-20T05:05:08;417.57;;;215.17;;
9322;SDS011;4700;48.822;9.270;2023-07-20T05:07:55;418.30;;;233.00;;
9322;SDS011;4700;48.822;9.270;2023-07-20T05:10:42;418.90;;;234.53;;
9322;SDS011;4700;48.822;9.270;2023-07-20T05:13:28;421.93;;;252.13;;
9322;SDS011;4700;48.822;9.270;2023-07-20T05:16:17;428.70;;;280.23;;
9322;SDS011;4700;48.822;9.270;2023-07-20T05:19:02;431.33;;;296.53;;
9322;SDS011;4700;48.822;9.270;2023-07-20T05:21:48;435.20;;;298.93;;
9322;SDS011;4700;48.822;9.270;2023-07-20T05:24:35;424.27;;;256.80;;
9322;SDS011;4700;48.822;9.270;2023-07-20T05:27:21;426.07;;;244.90;;
9322;SDS011;4700;48.822;9.270;2023-07-20T05:30:07;426.60;;;243.80;;
9322;SDS011;4700;48.822;9.270;2023-07-20T05:32:53;415.53;;;224.27;;
9322;SDS011;4700;48.822;9.270;2023-07-20T05:35:39;417.03;;;226.37;;
9322;SDS011;4700;48.822;9.270;2023-07-20T05:38:25;422.57;;;231.13;;
9322;SDS011;4700;48.822;9.270;2023-07-20T05:41:11;433.57;;;233.80;;
9322;SDS011;4700;48.822;9.270;2023-07-20T05:43:57;418.07;;;221.80;;
9322;SDS011;4700;48.822;9.270;2023-07-20T05:46:43;426.93;;;256.10;;
9322;SDS011;4700;48.822;9.270;2023-07-20T05:49:30;438.40;;;297.13;;
9322;SDS011;4700;48.822;9.270;2023-07-20T05:52:16;455.43;;;315.03;;
9322;SDS011;4700;48.822;9.270;2023-07-20T05:55:02;456.33;;;319.87;;
9322;SDS011;4700;48.822;9.270;2023-07-20T05:57:49;439.70;;;277.47;;
9322;SDS011;4700;48.822;9.270;2023-07-20T06:00:35;450.83;;;299.97;;
9322;SDS011;4700;48.822;9.270;2023-07-20T06:03:21;445.43;;;285.90;;
9322;SDS011;4700;48.822;9.270;2023-07-20T06:06:07;436.53;;;290.27;;
9322;SDS011;4700;48.822;9.270;2023-07-20T06:08:55;456.13;;;298.50;;
9322;SDS011;4700;48.822;9.270;2023-07-20T06:11:41;455.10;;;327.20;;
9322;SDS011;4700;48.822;9.270;2023-07-20T06:14:28;456.70;;;330.50;;
9322;SDS011;4700;48.822;9.270;2023-07-20T06:17:14;451.70;;;332.77;;
9322;SDS011;4700;48.822;9.270;2023-07-20T06:19:59;473.53;;;347.33;;
9322;SDS011;4700;48.822;9.270;2023-07-20T06:22:45;456.40;;;325.07;;
9322;SDS011;4700;48.822;9.270;2023-07-20T06:25:31;463.03;;;333.17;;
9322;SDS011;4700;48.822;9.270;2023-07-20T06:28:17;461.83;;;345.67;;
9322;SDS011;4700;48.822;9.270;2023-07-20T06:31:04;469.50;;;360.97;;
9322;SDS011;4700;48.822;9.270;2023-07-20T06:33:50;525.17;;;395.60;;
9322;SDS011;4700;48.822;9.270;2023-07-20T06:36:36;534.17;;;386.87;;
9322;SDS011;4700;48.822;9.270;2023-07-20T06:39:23;493.50;;;407.30;;
9322;SDS011;4700;48.822;9.270;2023-07-20T06:42:09;488.80;;;408.50;;
9322;SDS011;4700;48.822;9.270;2023-07-20T06:44:56;496.77;;;427.00;;
9322;SDS011;4700;48.822;9.270;2023-07-20T06:47:44;487.33;;;418.90;;
9322;SDS011;4700;48.822;9.270;2023-07-20T06:50:30;479.47;;;404.07;;
9322;SDS011;4700;48.822;9.270;2023-07-20T06:53:16;518.17;;;461.80;;
9322;SDS011;4700;48.822;9.270;2023-07-20T06:56:02;519.90;;;464.13;;
9322;SDS011;4700;48.822;9.270;2023-07-20T06:58:48;529.70;;;473.47;;
9322;SDS011;4700;48.822;9.270;2023-07-20T07:01:34;503.63;;;445.20;;
9322;SDS011;4700;48.822;9.270;2023-07-20T07:04:21;498.83;;;444.07;;
9322;SDS011;4700;48.822;9.270;2023-07-20T07:07:07;530.37;;;474.90;;
9322;SDS011;4700;48.822;9.270;2023-07-20T07:09:53;535.93;;;480.30;;
9322;SDS011;4700;48.822;9.270;2023-07-20T07:12:39;500.90;;;446.57;;
9322;SDS011;4700;48.822;9.270;2023-07-20T07:15:25;480.93;;;408.97;;
9322;SDS011;4700;48.822;9.270;2023-07-20T07:18:11;507.00;;;447.97;;
9322;SDS011;4700;48.822;9.270;2023-07-20T07:20:58;494.77;;;433.07;;
9322;SDS011;4700;48.822;9.270;2023-07-20T07:23:45;486.47;;;411.93;;
9322;SDS011;4700;48.822;9.270;2023-07-20T07:26:31;490.30;;;415.43;;
9322;SDS011;4700;48.822;9.270;2023-07-20T07:29:17;498.63;;;431.47;;
9322;SDS011;4700;48.822;9.270;2023-07-20T07:32:03;492.03;;;428.53;;
9322;SDS011;4700;48.822;9.270;2023-07-20T07:34:50;511.20;;;422.87;;
9322;SDS011;4700;48.822;9.270;2023-07-20T07:37:39;488.37;;;410.40;;
9322;SDS011;4700;48.822;9.270;2023-07-20T07:40:25;501.07;;;402.67;;
9322;SDS011;4700;48.822;9.270;2023-07-20T07:43:11;492.13;;;411.60;;
9322;SDS011;4700;48.822;9.270;2023-07-20T07:45:58;505.73;;;419.93;;
9322;SDS011;4700;48.822;9.270;2023-07-20T07:48:44;511.00;;;450.87;;
9322;SDS011;4700;48.822;9.270;2023-07-20T07:51:31;506.43;;;429.00;;
9322;SDS011;4700;48.822;9.270;2023-07-20T07:54:18;501.67;;;424.53;;
9322;SDS011;4700;48.822;9.270;2023-07-20T07:57:04;495.57;;;416.93;;
9322;SDS011;4700;48.822;9.270;2023-07-20T07:59:50;488.00;;;406.17;;
9322;SDS011;4700;48.822;9.270;2023-07-20T08:02:36;517.73;;;457.73;;
9322;SDS011;4700;48.822;9.270;2023-07-20T08:05:22;527.10;;;469.53;;
9322;SDS011;4700;48.822;9.270;2023-07-20T08:08:08;532.30;;;474.30;;
9322;SDS011;4700;48.822;9.270;2023-07-20T08:10:55;524.70;;;468.03;;
9322;SDS011;4700;48.822;9.270;2023-07-20T08:13:40;552.97;;;495.50;;
9322;SDS011;4700;48.822;9.270;2023-07-20T08:16:26;587.97;;;529.10;;
9322;SDS011;4700;48.822;9.270;2023-07-20T08:19:13;601.33;;;542.73;;
9322;SDS011;4700;48.822;9.270;2023-07-20T08:21:59;654.60;;;593.00;;
9322;SDS011;4700;48.822;9.270;2023-07-20T08:24:44;655.50;;;593.70;;
9322;SDS011;4700;48.822;9.270;2023-07-20T08:27:32;612.40;;;552.03;;
9322;SDS011;4700;48.822;9.270;2023-07-20T08:30:20;572.80;;;514.67;;
9322;SDS011;4700;48.822;9.270;2023-07-20T08:33:10;563.63;;;505.63;;
9322;SDS011;4700;48.822;9.270;2023-07-20T08:35:57;560.67;;;503.47;;
9322;SDS011;4700;48.822;9.270;2023-07-20T08:38:43;547.03;;;489.67;;
9322;SDS011;4700;48.822;9.270;2023-07-20T08:41:29;548.63;;;491.57;;
9322;SDS011;4700;48.822;9.270;2023-07-20T08:44:17;544.37;;;488.00;;
9322;SDS011;4700;48.822;9.270;2023-07-20T08:47:04;546.60;;;488.83;;
9322;SDS011;4700;48.822;9.270;2023-07-20T08:50:01;548.53;;;491.47;;
9322;SDS011;4700;48.822;9.270;2023-07-20T08:52:50;568.57;;;510.43;;
9322;SDS011;4700;48.822;9.270;2023-07-20T08:55:38;579.23;;;521.93;;
9322;SDS011;4700;48.822;9.270;2023-07-20T08:58:25;636.90;;;577.20;;
9322;SDS011;4700;48.822;9.270;2023-07-20T09:01:14;648.87;;;589.17;;
9322;SDS011;4700;48.822;9.270;2023-07-20T09:04:03;687.60;;;625.30;;
9322;SDS011;4700;48.822;9.270;2023-07-20T09:06:49;693.30;;;631.80;;
9322;SDS011;4700;48.822;9.270;2023-07-20T09:09:39;711.07;;;648.17;;
9322;SDS011;4700;48.822;9.270;2023-07-20T09:12:25;658.73;;;597.37;;
9322;SDS011;4700;48.822;9.270;2023-07-20T09:15:11;735.03;;;671.83;;
9322;SDS011;4700;48.822;9.270;2023-07-20T09:18:00;723.33;;;659.57;;
9322;SDS011;4700;48.822;9.270;2023-07-20T09:20:49;705.73;;;644.73;;
9322;SDS011;4700;48.822;9.270;2023-07-20T09:23:35;698.50;;;638.07;;
9322;SDS011;4700;48.822;9.270;2023-07-20T09:26:26;737.20;;;674.13;;
9322;SDS011;4700;48.822;9.270;2023-07-20T09:29:14;748.60;;;685.10;;
9322;SDS011;4700;48.822;9.270;2023-07-20T09:32:04;747.80;;;684.73;;
9322;SDS011;4700;48.822;9.270;2023-07-20T09:34:51;755.70;;;692.93;;
9322;SDS011;4700;48.822;9.270;2023-07-20T09:37:38;758.63;;;696.17;;
9322;SDS011;4700;48.822;9.270;2023-07-20T09:40:27;711.87;;;650.47;;
9322;SDS011;4700;48.822;9.270;2023-07-20T09:43:22;699.33;;;637.97;;
9322;SDS011;4700;48.822;9.270;2023-07-20T09:46:08;675.63;;;615.53;;
9322;SDS011;4700;48.822;9.270;2023-07-20T09:48:54;655.67;;;596.07;;
9322;SDS011;4700;48.822;9.270;2023-07-20T09:51:44;672.30;;;610.47;;
9322;SDS011;4700;48.822;9.270;2023-07-20T09:54:30;677.23;;;616.27;;
9322;SDS011;4700;48.822;9.270;2023-07-20T09:57:17;671.97;;;612.50;;
9322;SDS011;4700;48.822;9.270;2023-07-20T10:00:03;702.37;;;640.80;;
9322;SDS011;4700;48.822;9.270;2023-07-20T10:02:56;731.07;;;666.10;;
9322;SDS011;4700;48.822;9.270;2023-07-20T10:05:46;683.43;;;620.97;;
9322;SDS011;4700;48.822;9.270;2023-07-20T10:08:38;705.63;;;643.13;;
9322;SDS011;4700;48.822;9.270;2023-07-20T10:11:26;676.63;;;614.97;;
9322;SDS011;4700;48.822;9.270;2023-07-20T10:14:16;682.60;;;619.90;;
9322;SDS011;4700;48.822;9.270;2023-07-20T10:17:08;693.23;;;630.40;;
9322;SDS011;4700;48.822;9.270;2023-07-20T10:19:58;664.07;;;603.00;;
9322;SDS011;4700;48.822;9.270;2023-07-20T10:22:49;678.30;;;615.90;;
9322;SDS011;4700;48.822;9.270;2023-07-20T10:25:39;685.13;;;622.23;;
9322;SDS011;4700;48.822;9.270;2023-07-20T10:28:26;691.30;;;626.47;;
9322;SDS011;4700;48.822;9.270;2023-07-20T10:31:13;677.10;;;614.90;;
9322;SDS011;4700;48.822;9.270;2023-07-20T10:34:00;670.23;;;608.20;;
9322;SDS011;4700;48.822;9.270;2023-07-20T10:36:47;647.47;;;585.10;;
9322;SDS011;4700;48.822;9.270;2023-07-20T10:39:36;637.40;;;577.20;;
9322;SDS011;4700;48.822;9.270;2023-07-20T10:42:23;610.43;;;551.53;;
9322;SDS011;4700;48.822;9.270;2023-07-20T10:45:17;621.97;;;563.07;;
9322;SDS011;4700;48.822;9.270;2023-07-20T10:47:51;595.10;;;536.10;;
9322;SDS011;4700;48.822;9.270;2023-07-20T10:50:41;582.03;;;520.90;;
9322;SDS011;4700;48.822;9.270;2023-07-20T10:53:28;584.37;;;526.37;;
9322;SDS011;4700;48.822;9.270;2023-07-20T10:56:15;576.20;;;517.97;;
9322;SDS011;4700;48.822;9.270;2023-07-20T10:59:18;602.23;;;540.33;;
9322;SDS011;4700;48.822;9.270;2023-07-20T11:02:05;558.53;;;499.63;;
9322;SDS011;4700;48.822;9.270;2023-07-20T11:04:53;567.70;;;510.30;;
9322;SDS011;4700;48.822;9.270;2023-07-20T11:07:43;528.90;;;471.77;;
9322;SDS011;4700;48.822;9.270;2023-07-20T11:10:30;528.30;;;473.17;;
9322;SDS011;4700;48.822;9.270;2023-07-20T11:13:20;559.13;;;501.07;;
9322;SDS011;4700;48.822;9.270;2023-07-20T11:16:11;562.80;;;505.33;;
9322;SDS011;4700;48.822;9.270;2023-07-20T11:18:57;523.70;;;468.10;;
9322;SDS011;4700;48.822;9.270;2023-07-20T11:21:45;557.23;;;499.67;;
9322;SDS011;4700;48.822;9.270;2023-07-20T11:24:37;547.50;;;490.37;;
9322;SDS011;4700;48.822;9.270;2023-07-20T11:27:26;548.30;;;490.57;;
9322;SDS011;4700;48.822;9.270;2023-07-20T11:30:15;466.30;;;347.93;;
9322;SDS011;4700;48.822;9.270;2023-07-20T11:33:02;460.57;;;339.13;;
9322;SDS011;4700;48.822;9.270;2023-07-20T11:35:48;480.07;;;369.97;;
9322;SDS011;4700;48.822;9.270;2023-07-20T11:38:35;468.97;;;354.40;;
9322;SDS011;4700;48.822;9.270;2023-07-20T11:41:21;466.23;;;349.57;;
9322;SDS011;4700;48.822;9.270;2023-07-20T11:44:07;463.37;;;341.43;;
9322;SDS011;4700;48.822;9.270;2023-07-20T11:47:00;462.03;;;346.93;;
9322;SDS011;4700;48.822;9.270;2023-07-20T11:49:48;478.17;;;357.57;;
9322;SDS011;4700;48.822;9.270;2023-07-20T11:52:41;466.60;;;336.90;;
9322;SDS011;4700;48.822;9.270;2023-07-20T11:55:28;448.40;;;327.03;;
9322;SDS011;4700;48.822;9.270;2023-07-20T11:58:14;473.63;;;338.33;;
9322;SDS011;4700;48.822;9.270;2023-07-20T12:01:03;463.33;;;338.40;;
9322;SDS011;4700;48.822;9.270;2023-07-20T12:03:48;449.93;;;318.60;;
9322;SDS011;4700;48.822;9.270;2023-07-20T12:06:36;443.20;;;307.50;;
9322;SDS011;4700;48.822;9.270;2023-07-20T12:09:22;446.63;;;310.30;;
9322;SDS011;4700;48.822;9.270;2023-07-20T12:12:09;445.93;;;300.73;;
9322;SDS011;4700;48.822;9.270;2023-07-20T12:14:56;545.17;;;488.17;;
9322;SDS011;4700;48.822;9.270;2023-07-20T12:18:00;536.63;;;480.73;;
9322;SDS011;4700;48.822;9.270;2023-07-20T12:20:47;534.23;;;477.13;;
9322;SDS011;4700;48.822;9.270;2023-07-20T12:23:45;561.33;;;504.27;;
9322;SDS011;4700;48.822;9.270;2023-07-20T12:26:31;563.20;;;505.10;;
9322;SDS011;4700;48.822;9.270;2023-07-20T12:29:18;522.10;;;466.50;;
9322;SDS011;4700;48.822;9.270;2023-07-20T12:32:04;522.60;;;467.00;;
9322;SDS011;4700;48.822;9.270;2023-07-20T12:34:51;550.30;;;492.10;;
9322;SDS011;4700;48.822;9.270;2023-07-20T12:37:39;541.70;;;485.40;;
9322;SDS011;4700;48.822;9.270;2023-07-20T12:40:27;527.70;;;471.67;;
9322;SDS011;4700;48.822;9.270;2023-07-20T12:43:13;532.73;;;475.53;;
9322;SDS011;4700;48.822;9.270;2023-07-20T12:45:59;576.07;;;516.17;;
9322;SDS011;4700;48.822;9.270;2023-07-20T12:48:45;527.27;;;471.03;;
9322;SDS011;4700;48.822;9.270;2023-07-20T12:51:31;524.60;;;466.77;;
9322;SDS011;4700;48.822;9.270;2023-07-20T12:54:17;537.83;;;479.93;;
9322;SDS011;4700;48.822;9.270;2023-07-20T12:57:04;549.77;;;491.87;;
9322;SDS011;4700;48.822;9.270;2023-07-20T12:59:51;516.03;;;460.73;;
9322;SDS011;4700;48.822;9.270;2023-07-20T13:02:37;557.30;;;499.43;;
9322;SDS011;4700;48.822;9.270;2023-07-20T13:05:23;553.03;;;495.70;;
9322;SDS011;4700;48.822;9.270;2023-07-20T13:08:09;547.93;;;491.03;;
9322;SDS011;4700;48.822;9.270;2023-07-20T13:10:55;533.47;;;477.67;;
9322;SDS011;4700;48.822;9.270;2023-07-20T13:13:42;551.47;;;494.10;;
9322;SDS011;4700;48.822;9.270;2023-07-20T13:16:28;555.63;;;498.37;;
9322;SDS011;4700;48.822;9.270;2023-07-20T13:19:14;545.53;;;488.40;;
9322;SDS011;4700;48.822;9.270;2023-07-20T13:22:03;550.83;;;495.17;;
9322;SDS011;4700;48.822;9.270;2023-07-20T13:24:49;539.00;;;482.23;;
9322;SDS011;4700;48.822;9.270;2023-07-20T13:27:35;550.33;;;493.53;;
9322;SDS011;4700;48.822;9.270;2023-07-20T13:30:23;582.33;;;523.63;;
9322;SDS011;4700;48.822;9.270;2023-07-20T13:33:09;552.40;;;494.47;;
9322;SDS011;4700;48.822;9.270;2023-07-20T13:35:54;533.27;;;476.43;;
9322;SDS011;4700;48.822;9.270;2023-07-20T13:38:40;556.00;;;498.33;;
9322;SDS011;4700;48.822;9.270;2023-07-20T13:41:25;555.70;;;498.80;;
9322;SDS011;4700;48.822;9.270;2023-07-20T13:44:15;570.20;;;512.30;;
9322;SDS011;4700;48.822;9.270;2023-07-20T13:47:03;558.97;;;502.20;;
9322;SDS011;4700;48.822;9.270;2023-07-20T13:49:49;554.27;;;497.10;;
9322;SDS011;4700;48.822;9.270;2023-07-20T13:52:35;584.37;;;526.37;;
9322;SDS011;4700;48.822;9.270;2023-07-20T13:55:21;553.90;;;497.63;;
9322;SDS011;4700;48.822;9.270;2023-07-20T13:58:07;552.73;;;495.17;;
9322;SDS011;4700;48.822;9.270;2023-07-20T14:00:55;570.43;;;513.17;;
9322;SDS011;4700;48.822;9.270;2023-07-20T14:03:42;550.93;;;494.90;;
9322;SDS011;4700;48.822;9.270;2023-07-20T14:06:29;545.60;;;489.97;;
9322;SDS011;4700;48.822;9.270;2023-07-20T14:09:17;552.87;;;495.67;;
9322;SDS011;4700;48.822;9.270;2023-07-20T14:12:03;561.93;;;505.03;;
9322;SDS011;4700;48.822;9.270;2023-07-20T14:14:49;561.80;;;504.23;;
9322;SDS011;4700;48.822;9.270;2023-07-20T14:17:35;587.07;;;528.40;;
9322;SDS011;4700;48.822;9.270;2023-07-20T14:20:22;582.33;;;523.57;;
9322;SDS011;4700;48.822;9.270;2023-07-20T14:23:08;621.07;;;561.60;;
9322;SDS011;4700;48.822;9.270;2023-07-20T14:25:54;580.43;;;523.93;;
9322;SDS011;4700;48.822;9.270;2023-07-20T14:28:43;562.90;;;506.00;;
9322;SDS011;4700;48.822;9.270;2023-07-20T14:31:28;565.23;;;509.63;;
9322;SDS011;4700;48.822;9.270;2023-07-20T14:34:16;591.60;;;533.23;;
9322;SDS011;4700;48.822;9.270;2023-07-20T14:37:04;583.87;;;526.90;;
9322;SDS011;4700;48.822;9.270;2023-07-20T14:39:50;579.47;;;522.60;;
9322;SDS011;4700;48.822;9.270;2023-07-20T14:42:36;602.40;;;543.70;;
9322;SDS011;4700;48.822;9.270;2023-07-20T14:45:24;630.00;;;571.57;;
9322;SDS011;4700;48.822;9.270;2023-07-20T14:48:10;593.83;;;536.63;;
9322;SDS011;4700;48.822;9.270;2023-07-20T14:50:56;604.43;;;546.37;;
9322;SDS011;4700;48.822;9.270;2023-07-20T14:53:43;611.57;;;554.43;;
9322;SDS011;4700;48.822;9.270;2023-07-20T14:56:29;612.03;;;554.83;;
9322;SDS011;4700;48.822;9.270;2023-07-20T14:59:15;618.87;;;558.67;;
9322;SDS011;4700;48.822;9.270;2023-07-20T15:02:01;618.40;;;560.13;;
9322;SDS011;4700;48.822;9.270;2023-07-20T15:04:47;614.57;;;556.37;;
9322;SDS011;4700;48.822;9.270;2023-07-20T15:07:33;619.43;;;561.90;;
9322;SDS011;4700;48.822;9.270;2023-07-20T15:10:21;603.83;;;546.77;;
9322;SDS011;4700;48.822;9.270;2023-07-20T15:13:06;618.60;;;560.80;;
9322;SDS011;4700;48.822;9.270;2023-07-20T15:15:53;588.27;;;532.30;;
9322;SDS011;4700;48.822;9.270;2023-07-20T15:18:41;613.73;;;555.43;;
9322;SDS011;4700;48.822;9.270;2023-07-20T15:21:27;596.43;;;539.67;;
9322;SDS011;4700;48.822;9.270;2023-07-20T15:24:14;589.63;;;533.13;;
9322;SDS011;4700;48.822;9.270;2023-07-20T15:27:06;609.20;;;550.63;;
9322;SDS011;4700;48.822;9.270;2023-07-20T15:29:51;569.87;;;514.87;;
9322;SDS011;4700;48.822;9.270;2023-07-20T15:32:37;615.03;;;557.87;;
9322;SDS011;4700;48.822;9.270;2023-07-20T15:35:24;578.00;;;522.40;;
9322;SDS011;4700;48.822;9.270;2023-07-20T15:38:10;600.03;;;543.53;;
9322;SDS011;4700;48.822;9.270;2023-07-20T15:40:56;579.87;;;523.10;;
9322;SDS011;4700;48.822;9.270;2023-07-20T15:43:46;581.97;;;525.77;;
9322;SDS011;4700;48.822;9.270;2023-07-20T15:49:42;570.03;;;513.83;;
9322;SDS011;4700;48.822;9.270;2023-07-20T15:52:28;552.80;;;497.63;;
9322;SDS011;4700;48.822;9.270;2023-07-20T15:55:14;559.30;;;503.80;;
9322;SDS011;4700;48.822;9.270;2023-07-20T15:58:00;570.73;;;514.43;;
9322;SDS011;4700;48.822;9.270;2023-07-20T16:00:47;597.30;;;539.33;;
9322;SDS011;4700;48.822;9.270;2023-07-20T16:03:39;567.30;;;510.77;;
9322;SDS011;4700;48.822;9.270;2023-07-20T16:06:25;564.97;;;508.77;;
9322;SDS011;4700;48.822;9.270;2023-07-20T16:09:12;565.93;;;509.43;;
9322;SDS011;4700;48.822;9.270;2023-07-20T16:11:58;603.83;;;545.83;;
9322;SDS011;4700;48.822;9.270;2023-07-20T16:14:46;543.03;;;487.83;;
9322;SDS011;4700;48.822;9.270;2023-07-20T16:17:33;574.60;;;517.93;;
9322;SDS011;4700;48.822;9.270;2023-07-20T16:20:19;573.90;;;518.20;;
9322;SDS011;4700;48.822;9.270;2023-07-20T16:23:05;575.57;;;519.20;;